sensor_id;sensor_type;location;lat;lon;timestamp;P1;durP1;ratioP1;P2;durP2;ratioP2
19621;SDS011;9958;33.196;-97.114;2024-01-30T00:01:46;1.60;;;0.77;;
19621;SDS011;9958;33.196;-97.114;2024-01-30T00:04:14;2.15;;;0.77;;
19621;SDS011;9958;33.196;-97.114;2024-01-30T00:06:42;1.00;;;0.90;;
19621;SDS011;9958;33.196;-97.114;2024-01-30T00:09:10;1.60;;;0.80;;
19621;SDS011;9958;33.196;-97.114;2024-01-30T00:11:39;1.85;;;0.88;;
19621;SDS011;9958;33.196;-97.114;2024-01-30T00:14:09;1.30;;;0.88;;
19621;SDS011;9958;33.196;-97.114;2024-01-30T00:16:37;1.00;;;0.82;;
19621;SDS011;9958;33.196;-97.114;2024-01-30T00:19:06;1.17;;;0.98;;
19621;SDS011;9958;33.196;-97.114;2024-01-30T00:21:34;1.30;;;0.98;;
19621;SDS011;9958;33.196;-97.114;2024-01-30T00:24:02;1.40;;;1.00;;
19621;SDS011;9958;33.196;-97.114;2024-01-30T00:26:31;1.17;;;0.90;;
19621;SDS011;9958;33.196;-97.114;2024-01-30T00:28:59;1.77;;;1.27;;
19621;SDS011;9958;33.196;-97.114;2024-01-30T00:31:29;1.73;;;1.00;;
19621;SDS011;9958;33.196;-97.114;2024-01-30T00:33:57;0.95;;;0.90;;
19621;SDS011;9958;33.196;-97.114;2024-01-30T00:36:26;5.45;;;1.25;;
19621;SDS011;9958;33.196;-97.114;2024-01-30T00:38:55;3.50;;;1.38;;
19621;SDS011;9958;33.196;-97.114;2024-01-30T00:41:24;3.40;;;1.70;;
19621;SDS011;9958;33.196;-97.114;2024-01-30T00:43:52;1.80;;;1.30;;
19621;SDS011;9958;33.196;-97.114;2024-01-30T00:46:20;1.75;;;1.63;;
19621;SDS011;9958;33.196;-97.114;2024-01-30T00:48:50;2.60;;;1.58;;
19621;SDS011;9958;33.196;-97.114;2024-01-30T00:51:19;1.83;;;1.42;;
19621;SDS011;9958;33.196;-97.114;2024-01-30T00:53:47;4.57;;;1.63;;
19621;SDS011;9958;33.196;-97.114;2024-01-30T00:56:15;4.15;;;1.70;;
19621;SDS011;9958;33.196;-97.114;2024-01-30T00:58:44;2.83;;;1.88;;
19621;SDS011;9958;33.196;-97.114;2024-01-30T01:01:13;3.92;;;1.63;;
19621;SDS011;9958;33.196;-97.114;2024-01-30T01:03:41;1.73;;;1.60;;
19621;SDS011;9958;33.196;-97.114;2024-01-30T01:06:12;1.67;;;1.35;;
19621;SDS011;9958;33.196;-97.114;2024-01-30T01:08:40;1.73;;;1.52;;
19621;SDS011;9958;33.196;-97.114;2024-01-30T01:11:08;2.78;;;1.50;;
19621;SDS011;9958;33.196;-97.114;2024-01-30T01:13:36;1.73;;;1.42;;
19621;SDS011;9958;33.196;-97.114;2024-01-30T01:16:05;2.33;;;1.77;;
19621;SDS011;9958;33.196;-97.114;2024-01-30T01:18:33;3.85;;;1.50;;
19621;SDS011;9958;33.196;-97.114;2024-01-30T01:21:02;3.00;;;1.83;;
19621;SDS011;9958;33.196;-97.114;2024-01-30T01:23:32;1.98;;;1.20;;
19621;SDS011;9958;33.196;-97.114;2024-01-30T01:26:00;4.70;;;1.67;;
19621;SDS011;9958;33.196;-97.114;2024-01-30T01:28:28;5.00;;;2.05;;
19621;SDS011;9958;33.196;-97.114;2024-01-30T01:30:57;3.08;;;1.75;;
19621;SDS011;9958;33.196;-97.114;2024-01-30T01:33:30;3.45;;;1.52;;
19621;SDS011;9958;33.196;-97.114;2024-01-30T01:35:59;3.03;;;1.98;;
19621;SDS011;9958;33.196;-97.114;2024-01-30T01:38:28;3.83;;;2.10;;
19621;SDS011;9958;33.196;-97.114;2024-01-30T01:40:58;3.25;;;2.35;;
19621;SDS011;9958;33.196;-97.114;2024-01-30T01:43:27;4.38;;;1.98;;
19621;SDS011;9958;33.196;-97.114;2024-01-30T01:45:55;2.50;;;1.60;;
19621;SDS011;9958;33.196;-97.114;2024-01-30T01:48:24;3.15;;;1.20;;
19621;SDS011;9958;33.196;-97.114;2024-01-30T01:50:53;2.58;;;1.20;;
19621;SDS011;9958;33.196;-97.114;2024-01-30T01:53:21;3.83;;;1.20;;
19621;SDS011;9958;33.196;-97.114;2024-01-30T01:55:50;1.77;;;1.23;;
19621;SDS011;9958;33.196;-97.114;2024-01-30T01:58:21;2.53;;;1.30;;
19621;SDS011;9958;33.196;-97.114;2024-01-30T02:00:50;3.17;;;1.25;;
19621;SDS011;9958;33.196;-97.114;2024-01-30T02:03:19;1.90;;;1.23;;
19621;SDS011;9958;33.196;-97.114;2024-01-30T02:05:47;5.38;;;1.30;;
19621;SDS011;9958;33.196;-97.114;2024-01-30T02:08:17;3.45;;;1.40;;
19621;SDS011;9958;33.196;-97.114;2024-01-30T02:10:45;3.15;;;1.58;;
19621;SDS011;9958;33.196;-97.114;2024-01-30T02:13:14;1.73;;;1.40;;
19621;SDS011;9958;33.196;-97.114;2024-01-30T02:15:44;3.28;;;1.95;;
19621;SDS011;9958;33.196;-97.114;2024-01-30T02:18:17;3.40;;;2.60;;
19621;SDS011;9958;33.196;-97.114;2024-01-30T02:20:46;4.30;;;2.40;;
19621;SDS011;9958;33.196;-97.114;2024-01-30T02:23:17;3.00;;;1.85;;
19621;SDS011;9958;33.196;-97.114;2024-01-30T02:25:46;5.90;;;2.65;;
19621;SDS011;9958;33.196;-97.114;2024-01-30T02:28:14;2.42;;;2.00;;
19621;SDS011;9958;33.196;-97.114;2024-01-30T02:30:43;1.80;;;1.65;;
19621;SDS011;9958;33.196;-97.114;2024-01-30T02:33:11;1.50;;;1.30;;
19621;SDS011;9958;33.196;-97.114;2024-01-30T02:35:40;2.47;;;1.45;;
19621;SDS011;9958;33.196;-97.114;2024-01-30T02:38:08;2.75;;;1.75;;
19621;SDS011;9958;33.196;-97.114;2024-01-30T02:40:38;3.33;;;1.70;;
19621;SDS011;9958;33.196;-97.114;2024-01-30T02:43:06;5.03;;;1.70;;
19621;SDS011;9958;33.196;-97.114;2024-01-30T02:45:35;2.65;;;1.80;;
19621;SDS011;9958;33.196;-97.114;2024-01-30T02:48:03;2.70;;;1.38;;
19621;SDS011;9958;33.196;-97.114;2024-01-30T02:50:32;3.03;;;1.50;;
19621;SDS011;9958;33.196;-97.114;2024-01-30T02:53:01;2.20;;;1.40;;
19621;SDS011;9958;33.196;-97.114;2024-01-30T02:55:29;1.42;;;1.33;;
19621;SDS011;9958;33.196;-97.114;2024-01-30T02:57:59;2.97;;;1.75;;
19621;SDS011;9958;33.196;-97.114;2024-01-30T03:00:27;3.00;;;1.80;;
19621;SDS011;9958;33.196;-97.114;2024-01-30T03:02:56;2.67;;;1.75;;
19621;SDS011;9958;33.196;-97.114;2024-01-30T03:05:24;2.65;;;1.75;;
19621;SDS011;9958;33.196;-97.114;2024-01-30T03:07:53;3.80;;;1.77;;
19621;SDS011;9958;33.196;-97.114;2024-01-30T03:10:21;3.28;;;1.90;;
19621;SDS011;9958;33.196;-97.114;2024-01-30T03:12:50;3.60;;;1.70;;
19621;SDS011;9958;33.196;-97.114;2024-01-30T03:15:19;2.22;;;1.70;;
19621;SDS011;9958;33.196;-97.114;2024-01-30T03:17:48;4.25;;;1.80;;
19621;SDS011;9958;33.196;-97.114;2024-01-30T03:20:16;3.50;;;2.22;;
19621;SDS011;9958;33.196;-97.114;2024-01-30T03:22:45;2.65;;;1.70;;
19621;SDS011;9958;33.196;-97.114;2024-01-30T03:25:13;1.77;;;1.58;;
19621;SDS011;9958;33.196;-97.114;2024-01-30T03:27:41;4.28;;;1.63;;
19621;SDS011;9958;33.196;-97.114;2024-01-30T03:30:10;4.03;;;1.55;;
19621;SDS011;9958;33.196;-97.114;2024-01-30T03:32:40;5.95;;;1.67;;
19621;SDS011;9958;33.196;-97.114;2024-01-30T03:35:09;2.85;;;1.42;;
19621;SDS011;9958;33.196;-97.114;2024-01-30T03:37:37;3.13;;;1.75;;
19621;SDS011;9958;33.196;-97.114;2024-01-30T03:40:06;4.30;;;1.33;;
19621;SDS011;9958;33.196;-97.114;2024-01-30T03:42:35;1.42;;;1.30;;
19621;SDS011;9958;33.196;-97.114;2024-01-30T03:45:03;2.70;;;1.35;;
19621;SDS011;9958;33.196;-97.114;2024-01-30T03:47:32;0.95;;;0.93;;
19621;SDS011;9958;33.196;-97.114;2024-01-30T03:50:03;2.35;;;1.48;;
19621;SDS011;9958;33.196;-97.114;2024-01-30T03:52:31;1.60;;;1.23;;
19621;SDS011;9958;33.196;-97.114;2024-01-30T03:55:00;1.33;;;1.20;;
19621;SDS011;9958;33.196;-97.114;2024-01-30T03:57:28;1.73;;;1.30;;
19621;SDS011;9958;33.196;-97.114;2024-01-30T03:59:57;3.30;;;1.40;;
19621;SDS011;9958;33.196;-97.114;2024-01-30T04:02:25;2.40;;;1.42;;
19621;SDS011;9958;33.196;-97.114;2024-01-30T04:04:53;4.00;;;1.60;;
19621;SDS011;9958;33.196;-97.114;2024-01-30T04:07:23;1.33;;;1.05;;
19621;SDS011;9958;33.196;-97.114;2024-01-30T04:09:52;3.25;;;1.30;;
19621;SDS011;9958;33.196;-97.114;2024-01-30T04:12:20;1.40;;;1.15;;
19621;SDS011;9958;33.196;-97.114;2024-01-30T04:14:48;2.90;;;1.38;;
19621;SDS011;9958;33.196;-97.114;2024-01-30T04:17:16;1.02;;;0.93;;
19621;SDS011;9958;33.196;-97.114;2024-01-30T04:19:45;2.17;;;1.35;;
19621;SDS011;9958;33.196;-97.114;2024-01-30T04:22:13;1.52;;;1.17;;
19621;SDS011;9958;33.196;-97.114;2024-01-30T04:24:43;1.15;;;1.05;;
19621;SDS011;9958;33.196;-97.114;2024-01-30T04:27:11;1.05;;;1.05;;
19621;SDS011;9958;33.196;-97.114;2024-01-30T04:29:39;2.58;;;1.30;;
19621;SDS011;9958;33.196;-97.114;2024-01-30T04:32:08;1.10;;;0.90;;
19621;SDS011;9958;33.196;-97.114;2024-01-30T04:34:37;2.60;;;1.20;;
19621;SDS011;9958;33.196;-97.114;2024-01-30T04:37:05;1.77;;;1.15;;
19621;SDS011;9958;33.196;-97.114;2024-01-30T04:39:33;1.48;;;1.00;;
19621;SDS011;9958;33.196;-97.114;2024-01-30T04:42:04;1.48;;;1.27;;
19621;SDS011;9958;33.196;-97.114;2024-01-30T04:44:32;2.00;;;1.27;;
19621;SDS011;9958;33.196;-97.114;2024-01-30T04:47:01;1.38;;;1.10;;
19621;SDS011;9958;33.196;-97.114;2024-01-30T04:49:31;1.60;;;1.25;;
19621;SDS011;9958;33.196;-97.114;2024-01-30T04:51:58;1.30;;;1.20;;
19621;SDS011;9958;33.196;-97.114;2024-01-30T04:54:26;1.52;;;1.20;;
19621;SDS011;9958;33.196;-97.114;2024-01-30T04:56:55;1.23;;;1.13;;
19621;SDS011;9958;33.196;-97.114;2024-01-30T04:59:25;3.10;;;1.45;;
19621;SDS011;9958;33.196;-97.114;2024-01-30T05:01:53;2.60;;;1.48;;
19621;SDS011;9958;33.196;-97.114;2024-01-30T05:04:22;1.75;;;1.27;;
19621;SDS011;9958;33.196;-97.114;2024-01-30T05:06:50;4.15;;;1.67;;
19621;SDS011;9958;33.196;-97.114;2024-01-30T05:09:18;3.30;;;1.30;;
19621;SDS011;9958;33.196;-97.114;2024-01-30T05:11:47;3.50;;;1.60;;
19621;SDS011;9958;33.196;-97.114;2024-01-30T05:14:16;5.25;;;1.50;;
19621;SDS011;9958;33.196;-97.114;2024-01-30T05:16:45;4.35;;;1.25;;
19621;SDS011;9958;33.196;-97.114;2024-01-30T05:19:14;1.48;;;1.38;;
19621;SDS011;9958;33.196;-97.114;2024-01-30T05:21:42;3.05;;;1.67;;
19621;SDS011;9958;33.196;-97.114;2024-01-30T05:24:11;2.80;;;1.30;;
19621;SDS011;9958;33.196;-97.114;2024-01-30T05:26:39;4.35;;;1.30;;
19621;SDS011;9958;33.196;-97.114;2024-01-30T05:29:07;1.75;;;1.10;;
19621;SDS011;9958;33.196;-97.114;2024-01-30T05:31:35;2.33;;;1.35;;
19621;SDS011;9958;33.196;-97.114;2024-01-30T05:34:05;3.83;;;1.50;;
19621;SDS011;9958;33.196;-97.114;2024-01-30T05:36:34;2.45;;;1.55;;
19621;SDS011;9958;33.196;-97.114;2024-01-30T05:39:02;2.03;;;1.52;;
19621;SDS011;9958;33.196;-97.114;2024-01-30T05:41:31;3.72;;;1.42;;
19621;SDS011;9958;33.196;-97.114;2024-01-30T05:43:59;3.25;;;2.17;;
19621;SDS011;9958;33.196;-97.114;2024-01-30T05:46:27;1.92;;;1.83;;
19621;SDS011;9958;33.196;-97.114;2024-01-30T05:48:56;3.33;;;2.00;;
19621;SDS011;9958;33.196;-97.114;2024-01-30T05:51:25;2.40;;;1.45;;
19621;SDS011;9958;33.196;-97.114;2024-01-30T05:53:55;2.40;;;1.23;;
19621;SDS011;9958;33.196;-97.114;2024-01-30T05:56:23;1.67;;;1.58;;
19621;SDS011;9958;33.196;-97.114;2024-01-30T05:58:51;2.17;;;1.60;;
19621;SDS011;9958;33.196;-97.114;2024-01-30T06:01:20;1.98;;;1.42;;
19621;SDS011;9958;33.196;-97.114;2024-01-30T06:03:48;1.95;;;1.23;;
19621;SDS011;9958;33.196;-97.114;2024-01-30T06:06:16;2.00;;;1.30;;
19621;SDS011;9958;33.196;-97.114;2024-01-30T06:08:46;1.50;;;1.40;;
19621;SDS011;9958;33.196;-97.114;2024-01-30T06:11:14;3.58;;;1.52;;
19621;SDS011;9958;33.196;-97.114;2024-01-30T06:13:43;2.30;;;1.60;;
19621;SDS011;9958;33.196;-97.114;2024-01-30T06:16:11;4.95;;;1.90;;
19621;SDS011;9958;33.196;-97.114;2024-01-30T06:18:39;3.47;;;1.58;;
19621;SDS011;9958;33.196;-97.114;2024-01-30T06:21:08;1.60;;;1.45;;
19621;SDS011;9958;33.196;-97.114;2024-01-30T06:23:36;1.05;;;1.05;;
19621;SDS011;9958;33.196;-97.114;2024-01-30T06:26:06;1.30;;;1.20;;
19621;SDS011;9958;33.196;-97.114;2024-01-30T06:28:35;1.58;;;1.42;;
19621;SDS011;9958;33.196;-97.114;2024-01-30T06:31:03;2.15;;;1.17;;
19621;SDS011;9958;33.196;-97.114;2024-01-30T06:33:31;1.73;;;1.17;;
19621;SDS011;9958;33.196;-97.114;2024-01-30T06:36:00;1.42;;;1.30;;
19621;SDS011;9958;33.196;-97.114;2024-01-30T06:38:28;1.92;;;1.00;;
19621;SDS011;9958;33.196;-97.114;2024-01-30T06:40:56;1.30;;;1.20;;
19621;SDS011;9958;33.196;-97.114;2024-01-30T06:43:26;1.55;;;0.90;;
19621;SDS011;9958;33.196;-97.114;2024-01-30T06:45:54;1.42;;;1.20;;
19621;SDS011;9958;33.196;-97.114;2024-01-30T06:48:23;1.20;;;1.10;;
19621;SDS011;9958;33.196;-97.114;2024-01-30T06:50:53;2.78;;;1.50;;
19621;SDS011;9958;33.196;-97.114;2024-01-30T06:53:23;3.58;;;1.60;;
19621;SDS011;9958;33.196;-97.114;2024-01-30T06:55:52;2.30;;;0.98;;
19621;SDS011;9958;33.196;-97.114;2024-01-30T06:58:20;2.78;;;1.52;;
19621;SDS011;9958;33.196;-97.114;2024-01-30T07:00:50;1.45;;;1.35;;
19621;SDS011;9958;33.196;-97.114;2024-01-30T07:03:18;1.25;;;1.13;;
19621;SDS011;9958;33.196;-97.114;2024-01-30T07:05:47;1.80;;;1.27;;
19621;SDS011;9958;33.196;-97.114;2024-01-30T07:08:15;1.30;;;1.20;;
19621;SDS011;9958;33.196;-97.114;2024-01-30T07:10:44;1.33;;;1.23;;
19621;SDS011;9958;33.196;-97.114;2024-01-30T07:13:13;1.23;;;1.10;;
19621;SDS011;9958;33.196;-97.114;2024-01-30T07:15:42;1.10;;;1.02;;
19621;SDS011;9958;33.196;-97.114;2024-01-30T07:18:11;1.05;;;1.05;;
19621;SDS011;9958;33.196;-97.114;2024-01-30T07:20:40;1.27;;;1.17;;
19621;SDS011;9958;33.196;-97.114;2024-01-30T07:23:11;1.38;;;1.17;;
19621;SDS011;9958;33.196;-97.114;2024-01-30T07:25:42;3.50;;;1.30;;
19621;SDS011;9958;33.196;-97.114;2024-01-30T07:28:11;2.50;;;1.75;;
19621;SDS011;9958;33.196;-97.114;2024-01-30T07:30:42;4.78;;;1.40;;
19621;SDS011;9958;33.196;-97.114;2024-01-30T07:33:12;1.65;;;1.30;;
19621;SDS011;9958;33.196;-97.114;2024-01-30T07:35:40;1.15;;;1.05;;
19621;SDS011;9958;33.196;-97.114;2024-01-30T07:38:08;0.95;;;0.95;;
19621;SDS011;9958;33.196;-97.114;2024-01-30T07:40:36;3.17;;;0.98;;
19621;SDS011;9958;33.196;-97.114;2024-01-30T07:43:05;2.10;;;1.40;;
19621;SDS011;9958;33.196;-97.114;2024-01-30T07:45:33;1.30;;;1.20;;
19621;SDS011;9958;33.196;-97.114;2024-01-30T07:48:03;1.15;;;1.08;;
19621;SDS011;9958;33.196;-97.114;2024-01-30T07:50:33;1.20;;;1.10;;
19621;SDS011;9958;33.196;-97.114;2024-01-30T07:53:02;1.48;;;1.30;;
19621;SDS011;9958;33.196;-97.114;2024-01-30T07:55:30;2.10;;;1.20;;
19621;SDS011;9958;33.196;-97.114;2024-01-30T07:57:58;2.00;;;1.40;;
19621;SDS011;9958;33.196;-97.114;2024-01-30T08:00:27;0.98;;;0.98;;
19621;SDS011;9958;33.196;-97.114;2024-01-30T08:02:55;1.33;;;1.13;;
19621;SDS011;9958;33.196;-97.114;2024-01-30T08:05:24;1.55;;;1.30;;
19621;SDS011;9958;33.196;-97.114;2024-01-30T08:07:54;1.20;;;1.20;;
19621;SDS011;9958;33.196;-97.114;2024-01-30T08:10:22;1.25;;;1.15;;
19621;SDS011;9958;33.196;-97.114;2024-01-30T08:12:50;1.30;;;1.17;;
19621;SDS011;9958;33.196;-97.114;2024-01-30T08:15:18;1.33;;;1.23;;
19621;SDS011;9958;33.196;-97.114;2024-01-30T08:17:47;1.55;;;1.15;;
19621;SDS011;9958;33.196;-97.114;2024-01-30T08:20:15;2.15;;;1.00;;
19621;SDS011;9958;33.196;-97.114;2024-01-30T08:22:43;2.67;;;1.13;;
19621;SDS011;9958;33.196;-97.114;2024-01-30T08:25:13;1.23;;;1.13;;
19621;SDS011;9958;33.196;-97.114;2024-01-30T08:27:41;0.70;;;0.70;;
19621;SDS011;9958;33.196;-97.114;2024-01-30T08:30:10;1.05;;;1.05;;
19621;SDS011;9958;33.196;-97.114;2024-01-30T08:32:39;1.63;;;1.10;;
19621;SDS011;9958;33.196;-97.114;2024-01-30T08:35:07;1.33;;;1.17;;
19621;SDS011;9958;33.196;-97.114;2024-01-30T08:37:39;0.80;;;0.80;;
19621;SDS011;9958;33.196;-97.114;2024-01-30T08:40:07;2.20;;;1.20;;
19621;SDS011;9958;33.196;-97.114;2024-01-30T08:42:37;1.02;;;0.98;;
19621;SDS011;9958;33.196;-97.114;2024-01-30T08:45:06;1.20;;;1.20;;
19621;SDS011;9958;33.196;-97.114;2024-01-30T08:47:35;1.00;;;1.00;;
19621;SDS011;9958;33.196;-97.114;2024-01-30T08:50:03;1.42;;;1.33;;
19621;SDS011;9958;33.196;-97.114;2024-01-30T08:52:32;1.35;;;1.20;;
19621;SDS011;9958;33.196;-97.114;2024-01-30T08:55:01;0.93;;;0.85;;
19621;SDS011;9958;33.196;-97.114;2024-01-30T08:57:30;2.72;;;1.15;;
19621;SDS011;9958;33.196;-97.114;2024-01-30T09:00:00;4.43;;;1.20;;
19621;SDS011;9958;33.196;-97.114;2024-01-30T09:02:32;1.30;;;1.20;;
19621;SDS011;9958;33.196;-97.114;2024-01-30T09:05:00;1.83;;;1.23;;
19621;SDS011;9958;33.196;-97.114;2024-01-30T09:07:28;1.30;;;1.20;;
19621;SDS011;9958;33.196;-97.114;2024-01-30T09:09:57;1.42;;;1.20;;
19621;SDS011;9958;33.196;-97.114;2024-01-30T09:12:25;1.80;;;1.30;;
19621;SDS011;9958;33.196;-97.114;2024-01-30T09:14:53;1.23;;;1.10;;
19621;SDS011;9958;33.196;-97.114;2024-01-30T09:17:23;1.73;;;1.15;;
19621;SDS011;9958;33.196;-97.114;2024-01-30T09:19:51;1.55;;;1.38;;
19621;SDS011;9958;33.196;-97.114;2024-01-30T09:22:20;1.42;;;1.17;;
19621;SDS011;9958;33.196;-97.114;2024-01-30T09:24:48;1.48;;;1.38;;
19621;SDS011;9958;33.196;-97.114;2024-01-30T09:27:16;1.60;;;1.50;;
19621;SDS011;9958;33.196;-97.114;2024-01-30T09:29:45;1.92;;;1.50;;
19621;SDS011;9958;33.196;-97.114;2024-01-30T09:32:13;1.83;;;1.30;;
19621;SDS011;9958;33.196;-97.114;2024-01-30T09:34:44;2.45;;;1.33;;
19621;SDS011;9958;33.196;-97.114;2024-01-30T09:37:13;1.23;;;1.05;;
19621;SDS011;9958;33.196;-97.114;2024-01-30T09:39:43;4.57;;;1.33;;
19621;SDS011;9958;33.196;-97.114;2024-01-30T09:42:12;1.15;;;1.15;;
19621;SDS011;9958;33.196;-97.114;2024-01-30T09:44:48;1.70;;;1.23;;
19621;SDS011;9958;33.196;-97.114;2024-01-30T09:47:19;3.25;;;1.10;;
19621;SDS011;9958;33.196;-97.114;2024-01-30T09:49:49;2.08;;;1.60;;
19621;SDS011;9958;33.196;-97.114;2024-01-30T09:52:18;1.17;;;1.13;;
19621;SDS011;9958;33.196;-97.114;2024-01-30T09:54:47;1.50;;;1.40;;
19621;SDS011;9958;33.196;-97.114;2024-01-30T09:57:16;3.63;;;1.05;;
19621;SDS011;9958;33.196;-97.114;2024-01-30T09:59:45;5.00;;;1.40;;
19621;SDS011;9958;33.196;-97.114;2024-01-30T10:02:13;1.38;;;1.10;;
19621;SDS011;9958;33.196;-97.114;2024-01-30T10:04:41;2.20;;;1.30;;
19621;SDS011;9958;33.196;-97.114;2024-01-30T10:07:11;1.85;;;1.30;;
19621;SDS011;9958;33.196;-97.114;2024-01-30T10:09:41;1.30;;;1.20;;
19621;SDS011;9958;33.196;-97.114;2024-01-30T10:12:09;1.35;;;1.25;;
19621;SDS011;9958;33.196;-97.114;2024-01-30T10:14:38;1.48;;;1.15;;
19621;SDS011;9958;33.196;-97.114;2024-01-30T10:17:07;3.17;;;1.65;;
19621;SDS011;9958;33.196;-97.114;2024-01-30T10:19:36;2.72;;;1.67;;
19621;SDS011;9958;33.196;-97.114;2024-01-30T10:22:04;2.83;;;1.48;;
19621;SDS011;9958;33.196;-97.114;2024-01-30T10:24:34;3.47;;;1.80;;
19621;SDS011;9958;33.196;-97.114;2024-01-30T10:27:03;1.52;;;1.42;;
19621;SDS011;9958;33.196;-97.114;2024-01-30T10:29:33;1.75;;;1.40;;
19621;SDS011;9958;33.196;-97.114;2024-01-30T10:32:02;1.73;;;1.60;;
19621;SDS011;9958;33.196;-97.114;2024-01-30T10:34:31;1.55;;;1.45;;
19621;SDS011;9958;33.196;-97.114;2024-01-30T10:37:04;1.45;;;1.35;;
19621;SDS011;9958;33.196;-97.114;2024-01-30T10:39:39;1.27;;;1.25;;
19621;SDS011;9958;33.196;-97.114;2024-01-30T10:42:11;2.05;;;1.60;;
19621;SDS011;9958;33.196;-97.114;2024-01-30T10:44:43;1.98;;;1.25;;
19621;SDS011;9958;33.196;-97.114;2024-01-30T10:47:21;1.58;;;1.30;;
19621;SDS011;9958;33.196;-97.114;2024-01-30T10:49:54;1.65;;;1.40;;
19621;SDS011;9958;33.196;-97.114;2024-01-30T10:52:23;2.25;;;1.60;;
19621;SDS011;9958;33.196;-97.114;2024-01-30T10:54:55;3.05;;;1.58;;
19621;SDS011;9958;33.196;-97.114;2024-01-30T10:57:23;3.00;;;1.40;;
19621;SDS011;9958;33.196;-97.114;2024-01-30T10:59:52;1.35;;;1.35;;
19621;SDS011;9958;33.196;-97.114;2024-01-30T11:02:23;1.85;;;1.60;;
19621;SDS011;9958;33.196;-97.114;2024-01-30T11:04:57;3.67;;;1.55;;
19621;SDS011;9958;33.196;-97.114;2024-01-30T11:07:26;1.73;;;1.20;;
19621;SDS011;9958;33.196;-97.114;2024-01-30T11:10:01;1.20;;;1.10;;
19621;SDS011;9958;33.196;-97.114;2024-01-30T11:12:31;3.60;;;1.60;;
19621;SDS011;9958;33.196;-97.114;2024-01-30T11:15:03;1.40;;;1.30;;
19621;SDS011;9958;33.196;-97.114;2024-01-30T11:17:47;5.18;;;1.38;;
19621;SDS011;9958;33.196;-97.114;2024-01-30T11:20:19;4.75;;;1.40;;
19621;SDS011;9958;33.196;-97.114;2024-01-30T11:22:49;3.72;;;1.60;;
19621;SDS011;9958;33.196;-97.114;2024-01-30T11:25:21;2.20;;;1.50;;
19621;SDS011;9958;33.196;-97.114;2024-01-30T11:27:50;4.35;;;1.60;;
19621;SDS011;9958;33.196;-97.114;2024-01-30T11:30:22;2.55;;;1.50;;
19621;SDS011;9958;33.196;-97.114;2024-01-30T11:32:58;1.40;;;1.30;;
19621;SDS011;9958;33.196;-97.114;2024-01-30T11:35:28;1.92;;;1.58;;
19621;SDS011;9958;33.196;-97.114;2024-01-30T11:37:58;1.88;;;1.60;;
19621;SDS011;9958;33.196;-97.114;2024-01-30T11:40:28;3.13;;;1.63;;
19621;SDS011;9958;33.196;-97.114;2024-01-30T11:42:58;1.42;;;1.27;;
19621;SDS011;9958;33.196;-97.114;2024-01-30T11:45:28;1.67;;;1.58;;
19621;SDS011;9958;33.196;-97.114;2024-01-30T11:47:56;1.80;;;1.58;;
19621;SDS011;9958;33.196;-97.114;2024-01-30T11:50:25;1.48;;;1.30;;
19621;SDS011;9958;33.196;-97.114;2024-01-30T11:52:54;1.67;;;1.30;;
19621;SDS011;9958;33.196;-97.114;2024-01-30T11:55:24;1.13;;;1.13;;
19621;SDS011;9958;33.196;-97.114;2024-01-30T11:57:56;4.45;;;1.42;;
19621;SDS011;9958;33.196;-97.114;2024-01-30T12:00:24;1.55;;;1.45;;
19621;SDS011;9958;33.196;-97.114;2024-01-30T12:02:53;2.17;;;1.75;;
19621;SDS011;9958;33.196;-97.114;2024-01-30T12:05:22;1.67;;;1.58;;
19621;SDS011;9958;33.196;-97.114;2024-01-30T12:07:51;1.92;;;1.60;;
19621;SDS011;9958;33.196;-97.114;2024-01-30T12:10:21;1.42;;;1.33;;
19621;SDS011;9958;33.196;-97.114;2024-01-30T12:12:50;9.70;;;1.75;;
19621;SDS011;9958;33.196;-97.114;2024-01-30T12:15:21;2.97;;;1.67;;
19621;SDS011;9958;33.196;-97.114;2024-01-30T12:17:49;3.65;;;1.42;;
19621;SDS011;9958;33.196;-97.114;2024-01-30T12:20:18;2.03;;;1.40;;
19621;SDS011;9958;33.196;-97.114;2024-01-30T12:22:47;3.78;;;1.50;;
19621;SDS011;9958;33.196;-97.114;2024-01-30T12:25:17;4.80;;;1.55;;
19621;SDS011;9958;33.196;-97.114;2024-01-30T12:27:49;3.35;;;1.80;;
19621;SDS011;9958;33.196;-97.114;2024-01-30T12:30:20;1.58;;;1.48;;
19621;SDS011;9958;33.196;-97.114;2024-01-30T12:32:50;2.88;;;1.50;;
19621;SDS011;9958;33.196;-97.114;2024-01-30T12:35:19;3.92;;;2.00;;
19621;SDS011;9958;33.196;-97.114;2024-01-30T12:37:47;2.08;;;1.50;;
19621;SDS011;9958;33.196;-97.114;2024-01-30T12:40:17;4.63;;;1.77;;
19621;SDS011;9958;33.196;-97.114;2024-01-30T12:42:46;3.78;;;1.70;;
19621;SDS011;9958;33.196;-97.114;2024-01-30T12:45:15;3.45;;;1.42;;
19621;SDS011;9958;33.196;-97.114;2024-01-30T12:47:48;2.30;;;1.70;;
19621;SDS011;9958;33.196;-97.114;2024-01-30T12:50:16;3.63;;;1.67;;
19621;SDS011;9958;33.196;-97.114;2024-01-30T12:52:45;1.50;;;1.40;;
19621;SDS011;9958;33.196;-97.114;2024-01-30T12:55:13;3.78;;;1.55;;
19621;SDS011;9958;33.196;-97.114;2024-01-30T12:57:42;1.60;;;1.35;;
19621;SDS011;9958;33.196;-97.114;2024-01-30T13:00:10;1.45;;;1.35;;
19621;SDS011;9958;33.196;-97.114;2024-01-30T13:02:39;2.00;;;1.40;;
19621;SDS011;9958;33.196;-97.114;2024-01-30T13:05:10;1.10;;;1.10;;
19621;SDS011;9958;33.196;-97.114;2024-01-30T13:07:38;1.10;;;1.10;;
19621;SDS011;9958;33.196;-97.114;2024-01-30T13:10:07;1.00;;;1.00;;
19621;SDS011;9958;33.196;-97.114;2024-01-30T13:12:35;1.80;;;1.35;;
19621;SDS011;9958;33.196;-97.114;2024-01-30T13:15:04;1.50;;;1.33;;
19621;SDS011;9958;33.196;-97.114;2024-01-30T13:17:33;1.60;;;1.50;;
19621;SDS011;9958;33.196;-97.114;2024-01-30T13:20:01;1.10;;;1.10;;
19621;SDS011;9958;33.196;-97.114;2024-01-30T13:22:31;3.40;;;1.45;;
19621;SDS011;9958;33.196;-97.114;2024-01-30T13:25:00;1.77;;;1.15;;
19621;SDS011;9958;33.196;-97.114;2024-01-30T13:27:28;3.67;;;1.20;;
19621;SDS011;9958;33.196;-97.114;2024-01-30T13:29:56;0.98;;;0.85;;
19621;SDS011;9958;33.196;-97.114;2024-01-30T13:32:25;1.45;;;1.35;;
19621;SDS011;9958;33.196;-97.114;2024-01-30T13:34:53;2.67;;;1.55;;
19621;SDS011;9958;33.196;-97.114;2024-01-30T13:37:21;1.85;;;1.45;;
19621;SDS011;9958;33.196;-97.114;2024-01-30T13:39:52;1.33;;;1.10;;
19621;SDS011;9958;33.196;-97.114;2024-01-30T13:42:20;1.40;;;1.27;;
19621;SDS011;9958;33.196;-97.114;2024-01-30T13:44:49;1.13;;;1.13;;
19621;SDS011;9958;33.196;-97.114;2024-01-30T13:47:17;1.00;;;1.00;;
19621;SDS011;9958;33.196;-97.114;2024-01-30T13:49:47;4.25;;;1.30;;
19621;SDS011;9958;33.196;-97.114;2024-01-30T13:52:15;2.05;;;1.48;;
19621;SDS011;9958;33.196;-97.114;2024-01-30T13:54:43;3.75;;;2.10;;
19621;SDS011;9958;33.196;-97.114;2024-01-30T13:57:13;6.35;;;1.73;;
19621;SDS011;9958;33.196;-97.114;2024-01-30T13:59:41;2.85;;;1.33;;
19621;SDS011;9958;33.196;-97.114;2024-01-30T14:02:10;2.10;;;1.52;;
19621;SDS011;9958;33.196;-97.114;2024-01-30T14:04:38;1.88;;;1.75;;
19621;SDS011;9958;33.196;-97.114;2024-01-30T14:07:07;3.75;;;1.20;;
19621;SDS011;9958;33.196;-97.114;2024-01-30T14:09:35;5.68;;;1.40;;
19621;SDS011;9958;33.196;-97.114;2024-01-30T14:12:03;3.22;;;1.67;;
19621;SDS011;9958;33.196;-97.114;2024-01-30T14:14:33;2.30;;;1.50;;
19621;SDS011;9958;33.196;-97.114;2024-01-30T14:17:02;2.38;;;1.73;;
19621;SDS011;9958;33.196;-97.114;2024-01-30T14:19:32;1.77;;;1.52;;
19621;SDS011;9958;33.196;-97.114;2024-01-30T14:22:01;1.30;;;1.15;;
19621;SDS011;9958;33.196;-97.114;2024-01-30T14:24:29;1.23;;;1.23;;
19621;SDS011;9958;33.196;-97.114;2024-01-30T14:26:58;4.18;;;1.02;;
19621;SDS011;9958;33.196;-97.114;2024-01-30T14:29:26;2.47;;;1.02;;
19621;SDS011;9958;33.196;-97.114;2024-01-30T14:31:56;2.30;;;1.25;;
19621;SDS011;9958;33.196;-97.114;2024-01-30T14:34:24;2.05;;;1.05;;
19621;SDS011;9958;33.196;-97.114;2024-01-30T14:36:53;3.17;;;1.20;;
19621;SDS011;9958;33.196;-97.114;2024-01-30T14:39:21;1.70;;;1.10;;
19621;SDS011;9958;33.196;-97.114;2024-01-30T14:41:49;1.15;;;1.08;;
19621;SDS011;9958;33.196;-97.114;2024-01-30T14:44:18;2.38;;;1.00;;